createdAt,value
2022-10-13T00:00:05.424Z,367
2022-10-13T00:02:05.475Z,373
2022-10-13T00:03:04.924Z,365
2022-10-13T00:04:05.223Z,358
2022-10-13T00:05:04.680Z,354
2022-10-13T00:06:05.054Z,357
2022-10-13T00:07:04.423Z,355
2022-10-13T00:08:04.983Z,354
2022-10-13T00:09:04.365Z,360
2022-10-13T00:10:04.745Z,366
2022-10-13T00:11:05.170Z,361
2022-10-13T00:12:04.479Z,359
2022-10-13T00:13:04.570Z,353
2022-10-13T00:14:04.755Z,358
2022-10-13T00:15:04.301Z,363
2022-10-13T00:16:04.904Z,357
2022-10-13T00:17:04.348Z,361
2022-10-13T00:18:04.897Z,364
2022-10-13T00:19:05.321Z,392
2022-10-13T00:20:05.181Z,358
2022-10-13T00:21:04.565Z,361
2022-10-13T00:22:05.033Z,362
2022-10-13T00:23:04.292Z,357
2022-10-13T00:24:04.486Z,368
2022-10-13T00:25:04.846Z,372
2022-10-13T00:26:05.367Z,367
2022-10-13T00:27:04.732Z,364
2022-10-13T00:28:05.072Z,362
2022-10-13T00:29:04.350Z,361
2022-10-13T00:30:04.918Z,362
2022-10-13T00:32:04.703Z,360
2022-10-13T00:33:05.137Z,365
2022-10-13T00:34:04.419Z,364
2022-10-13T00:36:05.092Z,373
2022-10-13T00:37:04.241Z,372
2022-10-13T00:38:04.778Z,375
2022-10-13T00:39:05.090Z,351
2022-10-13T00:40:04.428Z,360
2022-10-13T00:41:04.607Z,364
2022-10-13T00:42:04.969Z,362
2022-10-13T00:43:04.245Z,371
2022-10-13T00:44:04.349Z,359
2022-10-13T00:46:05.175Z,361
2022-10-13T00:47:04.483Z,363
2022-10-13T00:48:04.884Z,368
2022-10-13T00:49:05.271Z,367
2022-10-13T00:50:04.807Z,360
2022-10-13T00:51:05.361Z,353
2022-10-13T00:52:04.560Z,359
2022-10-13T00:53:04.841Z,366
2022-10-13T00:54:05.389Z,365
2022-10-13T00:55:04.858Z,358
2022-10-13T00:56:05.359Z,354
2022-10-13T00:57:04.576Z,359
2022-10-13T00:58:05.309Z,366
2022-10-13T00:59:04.989Z,362
2022-10-13T01:01:05.254Z,372
2022-10-13T01:02:04.689Z,357
2022-10-13T01:03:05.285Z,356
2022-10-13T01:04:04.653Z,365
2022-10-13T01:05:04.924Z,363
2022-10-13T01:06:05.219Z,364
2022-10-13T01:07:04.421Z,361
2022-10-13T01:08:04.795Z,364
2022-10-13T01:09:05.089Z,368
2022-10-13T01:10:05.060Z,376
2022-10-13T01:11:04.270Z,366
2022-10-13T01:12:04.654Z,361
2022-10-13T01:13:04.893Z,359
2022-10-13T01:14:05.237Z,367
2022-10-13T01:15:04.807Z,364
2022-10-13T01:16:05.307Z,365
2022-10-13T01:17:04.808Z,356
2022-10-13T01:18:05.170Z,351
2022-10-13T01:19:04.634Z,364
2022-10-13T01:20:05.109Z,358
2022-10-13T01:21:04.478Z,360
2022-10-13T01:22:04.948Z,363
2022-10-13T01:23:04.166Z,372
2022-10-13T01:24:04.282Z,367
2022-10-13T01:25:04.898Z,366
2022-10-13T01:26:05.141Z,360
2022-10-13T01:27:04.284Z,362
2022-10-13T01:28:04.434Z,370
2022-10-13T01:29:04.760Z,376
2022-10-13T01:30:05.422Z,355
2022-10-13T01:31:04.869Z,358
2022-10-13T01:32:05.292Z,362
2022-10-13T01:33:04.850Z,366
2022-10-13T01:34:05.114Z,373
2022-10-13T01:35:04.316Z,370
2022-10-13T01:36:04.955Z,363
2022-10-13T01:37:05.286Z,352
2022-10-13T01:38:04.606Z,379
2022-10-13T01:39:04.883Z,355
2022-10-13T01:40:05.457Z,356
2022-10-13T01:41:04.850Z,368
2022-10-13T01:42:05.176Z,367
2022-10-13T01:43:04.372Z,357
2022-10-13T01:44:04.760Z,365
2022-10-13T01:45:05.415Z,372
2022-10-13T01:46:04.889Z,367
2022-10-13T01:47:05.259Z,363
2022-10-13T01:48:04.468Z,362
2022-10-13T01:49:26.659Z,358
2022-10-13T01:50:04.958Z,364
2022-10-13T01:51:04.234Z,365
2022-10-13T01:52:04.366Z,360
2022-10-13T01:53:04.698Z,365
2022-10-13T01:54:05.024Z,368
2022-10-13T01:55:04.137Z,372
2022-10-13T01:56:04.562Z,366
2022-10-13T01:57:04.847Z,367
2022-10-13T01:58:05.269Z,342
2022-10-13T01:59:04.341Z,352
2022-10-13T02:00:04.978Z,355
2022-10-13T02:01:05.281Z,354
2022-10-13T02:02:04.614Z,360
2022-10-13T02:03:05.027Z,354
2022-10-13T02:04:04.378Z,362
2022-10-13T02:05:04.446Z,361
2022-10-13T02:06:04.847Z,360
2022-10-13T02:07:05.141Z,366
2022-10-13T02:08:04.476Z,368
2022-10-13T02:09:04.736Z,366
2022-10-13T02:10:05.256Z,360
2022-10-13T02:11:04.532Z,366
2022-10-13T02:12:04.858Z,362
2022-10-13T02:14:04.280Z,360
2022-10-13T02:15:04.628Z,357
2022-10-13T02:16:05.188Z,350
2022-10-13T02:17:04.465Z,375
2022-10-13T02:18:04.933Z,345
2022-10-13T02:19:05.131Z,354
2022-10-13T02:20:04.478Z,358
2022-10-13T02:21:04.981Z,368
2022-10-13T02:22:04.226Z,362
2022-10-13T02:23:04.319Z,374
2022-10-13T02:24:04.694Z,373
2022-10-13T02:25:05.154Z,372
2022-10-13T02:26:04.479Z,373
2022-10-13T02:27:04.819Z,368
2022-10-13T02:28:05.107Z,366
2022-10-13T02:29:04.318Z,369
2022-10-13T02:30:04.804Z,373
2022-10-13T02:31:05.288Z,367
2022-10-13T02:32:04.845Z,373
2022-10-13T02:33:05.497Z,368
2022-10-13T02:34:05.193Z,364
2022-10-13T02:35:04.605Z,360
2022-10-13T02:36:04.870Z,380
2022-10-13T02:37:05.287Z,372
2022-10-13T02:38:04.650Z,359
2022-10-13T02:39:04.904Z,354
2022-10-13T02:40:05.364Z,346
2022-10-13T02:41:04.839Z,344
2022-10-13T02:42:05.333Z,359
2022-10-13T02:43:04.684Z,374
2022-10-13T02:44:04.972Z,370
2022-10-13T02:45:04.188Z,365
2022-10-13T02:46:04.512Z,364
2022-10-13T02:47:04.830Z,357
2022-10-13T02:48:05.078Z,351
2022-10-13T02:49:04.213Z,357
2022-10-13T02:50:04.592Z,350
2022-10-13T02:51:04.827Z,366
2022-10-13T02:52:05.004Z,365
2022-10-13T02:53:04.157Z,358
2022-10-13T02:54:04.396Z,349
2022-10-13T02:55:04.708Z,339
2022-10-13T02:56:04.935Z,381
2022-10-13T02:57:04.295Z,359
2022-10-13T02:58:04.580Z,357
2022-10-13T02:59:04.896Z,359
2022-10-13T03:00:05.798Z,354
2022-10-13T03:01:04.995Z,357
2022-10-13T03:02:04.486Z,367
2022-10-13T03:03:05.125Z,365
2022-10-13T03:04:04.519Z,370
2022-10-13T03:05:04.661Z,372
2022-10-13T03:06:05.109Z,375
2022-10-13T03:07:04.546Z,369
2022-10-13T03:08:05.266Z,361
2022-10-13T03:09:04.675Z,365
2022-10-13T03:10:05.014Z,373
2022-10-13T03:11:04.260Z,360
2022-10-13T03:12:04.666Z,366
2022-10-13T03:13:04.850Z,356
2022-10-13T03:14:05.195Z,361
2022-10-13T03:15:04.720Z,360
2022-10-13T03:16:05.421Z,352
2022-10-13T03:17:04.887Z,358
2022-10-13T03:18:04.288Z,354
2022-10-13T03:19:04.784Z,357
2022-10-13T03:20:04.211Z,363
2022-10-13T03:21:04.740Z,352
2022-10-13T03:22:05.127Z,360
2022-10-13T03:23:04.525Z,368
2022-10-13T03:24:04.829Z,370
2022-10-13T03:25:05.125Z,365
2022-10-13T03:26:04.499Z,360
2022-10-13T03:27:04.808Z,361
2022-10-13T03:29:04.222Z,362
2022-10-13T03:30:04.734Z,363
2022-10-13T03:31:05.507Z,365
2022-10-13T03:33:05.058Z,368
2022-10-13T03:34:04.262Z,375
2022-10-13T03:35:04.732Z,366
2022-10-13T03:36:05.124Z,362
2022-10-13T03:37:04.458Z,367
2022-10-13T03:38:04.742Z,377
2022-10-13T03:39:05.087Z,372
2022-10-13T03:40:04.257Z,368
2022-10-13T03:41:04.682Z,371
2022-10-13T03:42:05.148Z,367
2022-10-13T03:43:04.498Z,364
2022-10-13T03:44:04.906Z,361
2022-10-13T03:45:05.446Z,363
2022-10-13T03:46:04.882Z,364
2022-10-13T03:47:05.184Z,358
2022-10-13T03:48:04.588Z,362
2022-10-13T03:49:05.109Z,374
2022-10-13T03:50:04.376Z,370
2022-10-13T03:51:04.591Z,359
2022-10-13T03:52:04.953Z,360
2022-10-13T03:53:04.143Z,361
2022-10-13T03:54:04.472Z,356
2022-10-13T03:55:04.676Z,407
2022-10-13T03:56:05.161Z,399
2022-10-13T03:57:04.316Z,377
2022-10-13T03:58:04.514Z,374
2022-10-13T03:59:05.030Z,372
2022-10-13T04:00:05.111Z,370
2022-10-13T04:01:04.156Z,367
2022-10-13T04:02:04.658Z,370
2022-10-13T04:03:05.228Z,358
2022-10-13T04:04:04.475Z,364
2022-10-13T04:05:04.817Z,370
2022-10-13T04:06:05.264Z,375
2022-10-13T04:07:04.298Z,368
2022-10-13T04:08:04.535Z,361
2022-10-13T04:09:05.370Z,359
2022-10-13T04:12:05.060Z,356
2022-10-13T04:13:04.507Z,354
2022-10-13T04:14:04.890Z,375
2022-10-13T04:15:05.373Z,368
2022-10-13T04:16:04.701Z,362
2022-10-13T04:17:05.349Z,363
2022-10-13T04:18:04.639Z,359
2022-10-13T04:20:04.569Z,361
2022-10-13T04:21:05.100Z,359
2022-10-13T04:22:04.292Z,369
2022-10-13T04:23:04.672Z,362
2022-10-13T04:24:05.158Z,354
2022-10-13T04:25:04.541Z,355
2022-10-13T04:26:05.170Z,353
2022-10-13T04:27:04.534Z,367
2022-10-13T04:28:04.704Z,369
2022-10-13T04:29:04.929Z,373
2022-10-13T04:30:04.433Z,374
2022-10-13T04:31:04.815Z,375
2022-10-13T04:32:05.282Z,366
2022-10-13T04:33:04.929Z,347
2022-10-13T04:34:05.319Z,398
2022-10-13T04:35:04.405Z,356
2022-10-13T04:37:04.111Z,360
2022-10-13T04:38:04.419Z,369
2022-10-13T04:39:04.962Z,370
2022-10-13T04:40:04.298Z,372
2022-10-13T04:41:04.717Z,366
2022-10-13T04:42:04.992Z,376
2022-10-13T04:43:05.244Z,367
2022-10-13T04:44:04.474Z,351
2022-10-13T04:45:05.006Z,357
2022-10-13T04:46:04.303Z,365
2022-10-13T04:47:04.498Z,359
2022-10-13T04:48:04.946Z,367
2022-10-13T04:49:04.154Z,364
2022-10-13T04:50:04.532Z,360
2022-10-13T04:51:05.047Z,365
2022-10-13T04:52:04.173Z,369
2022-10-13T04:53:04.620Z,386
2022-10-13T04:54:04.895Z,362
2022-10-13T04:55:04.249Z,359
2022-10-13T04:56:04.660Z,365
2022-10-13T04:57:05.159Z,364
2022-10-13T04:58:04.275Z,348
2022-10-13T04:59:04.535Z,351
2022-10-13T05:00:05.571Z,352
2022-10-13T05:01:05.077Z,357
2022-10-13T05:02:04.523Z,365
2022-10-13T05:03:05.086Z,364
2022-10-13T05:04:04.341Z,369
2022-10-13T05:05:04.867Z,368
2022-10-13T05:06:04.092Z,364
2022-10-13T05:07:17.465Z,366
2022-10-13T05:09:04.420Z,361
2022-10-13T05:10:04.931Z,358
2022-10-13T05:11:04.145Z,354
2022-10-13T05:12:04.496Z,367
2022-10-13T05:13:04.756Z,369
2022-10-13T05:14:05.244Z,364
2022-10-13T05:15:04.451Z,366
2022-10-13T05:16:04.699Z,359
2022-10-13T05:17:05.194Z,367
2022-10-13T05:18:04.531Z,358
2022-10-13T05:19:04.842Z,368
2022-10-13T05:20:05.204Z,357
2022-10-13T05:21:04.482Z,350
2022-10-13T05:22:04.925Z,356
2022-10-13T05:23:05.065Z,364
2022-10-13T05:24:04.399Z,376
2022-10-13T05:25:05.014Z,374
2022-10-13T05:26:04.249Z,367
2022-10-13T05:27:04.647Z,370
2022-10-13T05:28:05.254Z,367
2022-10-13T05:29:04.519Z,369
2022-10-13T05:30:05.287Z,364
2022-10-13T05:31:04.616Z,365
2022-10-13T05:32:05.233Z,361
2022-10-13T05:33:04.532Z,352
2022-10-13T05:34:04.909Z,354
2022-10-13T05:35:05.322Z,357
2022-10-13T05:36:04.511Z,356
2022-10-13T05:37:04.748Z,353
2022-10-13T05:38:05.035Z,364
2022-10-13T05:39:04.048Z,367
2022-10-13T05:40:04.603Z,370
2022-10-13T05:41:05.034Z,375
2022-10-13T05:42:04.401Z,368
2022-10-13T05:43:04.540Z,366
2022-10-13T05:44:04.783Z,373
2022-10-13T05:45:05.448Z,374
2022-10-13T05:46:04.807Z,372
2022-10-13T05:47:07.546Z,373
2022-10-13T05:48:05.221Z,369
2022-10-13T05:49:04.198Z,376
2022-10-13T05:50:04.306Z,368
2022-10-13T05:51:04.505Z,358
2022-10-13T05:52:04.688Z,365
2022-10-13T05:53:04.901Z,362
2022-10-13T05:54:05.338Z,368
2022-10-13T05:55:04.791Z,374
2022-10-13T05:56:05.112Z,367
2022-10-13T05:57:04.265Z,368
2022-10-13T05:58:04.420Z,363
2022-10-13T05:59:04.622Z,369
2022-10-13T06:00:06.177Z,371
2022-10-13T06:01:10.070Z,366
2022-10-13T06:02:04.618Z,372
2022-10-13T06:03:10.306Z,368
2022-10-13T06:04:04.675Z,359
2022-10-13T06:05:05.165Z,357
2022-10-13T06:06:04.627Z,361
2022-10-13T06:07:05.275Z,355
2022-10-13T06:08:04.391Z,359
2022-10-13T06:09:04.830Z,355
2022-10-13T06:10:05.369Z,361
2022-10-13T06:11:04.715Z,384
2022-10-13T06:12:05.331Z,391
2022-10-13T06:13:04.378Z,361
2022-10-13T06:14:04.454Z,368
2022-10-13T06:15:05.012Z,377
2022-10-13T06:16:04.378Z,383
2022-10-13T06:17:04.714Z,377
2022-10-13T06:18:05.250Z,366
2022-10-13T06:19:04.426Z,365
2022-10-13T06:21:04.693Z,362
2022-10-13T06:22:05.222Z,373
2022-10-13T06:23:04.522Z,383
2022-10-13T06:24:05.051Z,388
2022-10-13T06:25:04.328Z,385
2022-10-13T06:26:04.951Z,377
2022-10-13T06:27:04.485Z,384
2022-10-13T06:28:04.801Z,374
2022-10-13T06:29:05.282Z,372
2022-10-13T06:30:04.925Z,370
2022-10-13T06:31:04.582Z,392
2022-10-13T06:32:05.422Z,366
2022-10-13T06:33:04.943Z,365
2022-10-13T06:34:04.429Z,370
2022-10-13T06:36:04.160Z,368
2022-10-13T06:37:04.369Z,379
2022-10-13T06:39:04.575Z,372
2022-10-13T06:40:05.017Z,374
2022-10-13T06:41:04.361Z,373
2022-10-13T06:43:04.914Z,365
2022-10-13T06:44:04.383Z,359
2022-10-13T06:45:04.898Z,361
2022-10-13T06:46:04.349Z,374
2022-10-13T06:47:04.933Z,376
2022-10-13T06:48:04.674Z,365
2022-10-13T06:49:05.277Z,360
2022-10-13T06:50:04.481Z,363
2022-10-13T06:51:04.839Z,353
2022-10-13T06:52:05.272Z,360
2022-10-13T06:53:04.264Z,362
2022-10-13T06:54:04.759Z,360
2022-10-13T06:55:05.301Z,361
2022-10-13T06:57:05.025Z,360
2022-10-13T06:58:04.523Z,365
2022-10-13T06:59:04.760Z,358
2022-10-13T07:00:05.727Z,371
2022-10-13T07:01:04.280Z,363
2022-10-13T07:02:04.840Z,366
2022-10-13T07:03:04.310Z,363
2022-10-13T07:04:05.019Z,362
2022-10-13T07:05:04.643Z,359
2022-10-13T07:06:05.441Z,362
2022-10-13T07:07:04.915Z,356
2022-10-13T07:09:05.021Z,358
2022-10-13T07:10:04.373Z,392
2022-10-13T07:11:04.867Z,381
2022-10-13T07:12:04.810Z,362
2022-10-13T07:13:05.323Z,368
2022-10-13T07:14:04.726Z,373
2022-10-13T07:15:05.387Z,367
2022-10-13T07:16:04.678Z,376
2022-10-13T07:17:05.566Z,380
2022-10-13T07:18:05.268Z,365
2022-10-13T07:19:04.406Z,367
2022-10-13T07:20:07.249Z,368
2022-10-13T07:21:05.207Z,373
2022-10-13T07:22:04.436Z,370
2022-10-13T07:23:05.005Z,360
2022-10-13T07:24:04.323Z,358
2022-10-13T07:25:04.919Z,361
2022-10-13T07:26:04.248Z,355
2022-10-13T07:27:07.756Z,361
2022-10-13T07:28:04.100Z,365
2022-10-13T07:29:04.425Z,345
2022-10-13T07:30:05.410Z,352
2022-10-13T07:31:04.632Z,348
2022-10-13T07:32:05.474Z,359
2022-10-13T07:33:05.078Z,361
2022-10-13T07:34:05.309Z,363
2022-10-13T07:35:04.419Z,364
2022-10-13T07:36:04.689Z,366
2022-10-13T07:37:05.061Z,368
2022-10-13T07:38:04.526Z,366
2022-10-13T07:39:05.199Z,360
2022-10-13T07:40:04.394Z,368
2022-10-13T07:41:04.887Z,361
2022-10-13T07:42:04.278Z,354
2022-10-13T07:43:04.584Z,359
2022-10-13T07:44:05.117Z,354
2022-10-13T07:45:04.473Z,352
2022-10-13T07:46:05.199Z,361
2022-10-13T07:47:04.240Z,352
2022-10-13T07:48:04.583Z,365
2022-10-13T07:49:05.445Z,357
2022-10-13T07:50:04.438Z,349
2022-10-13T07:52:04.193Z,354
2022-10-13T07:53:05.575Z,360
2022-10-13T07:54:05.056Z,353
2022-10-13T07:55:04.391Z,347
2022-10-13T07:56:04.920Z,354
2022-10-13T07:57:05.287Z,360
2022-10-13T07:58:04.377Z,367
2022-10-13T07:59:04.888Z,368
2022-10-13T08:00:04.906Z,350
2022-10-13T08:02:04.606Z,349
2022-10-13T08:03:05.175Z,356
2022-10-13T08:04:04.239Z,353
2022-10-13T08:06:05.014Z,357
2022-10-13T08:07:04.335Z,346
2022-10-13T08:08:04.952Z,357
2022-10-13T08:09:04.441Z,362
2022-10-13T08:10:05.040Z,364
2022-10-13T08:11:04.313Z,359
2022-10-13T08:12:04.906Z,358
2022-10-13T08:14:04.669Z,367
2022-10-13T08:15:06.342Z,365
2022-10-13T08:16:05.147Z,352
2022-10-13T08:18:05.047Z,358
2022-10-13T08:19:04.144Z,359
2022-10-13T08:20:04.707Z,370
2022-10-13T08:21:33.048Z,361
2022-10-13T08:22:09.839Z,367
2022-10-13T08:23:04.283Z,361
2022-10-13T08:24:09.541Z,362
2022-10-13T08:25:04.858Z,374
2022-10-13T08:26:04.325Z,375
2022-10-13T08:27:04.742Z,374
2022-10-13T08:28:05.231Z,367
2022-10-13T08:29:21.996Z,364
2022-10-13T08:30:04.990Z,372
2022-10-13T08:31:04.702Z,371
2022-10-13T08:32:05.248Z,363
2022-10-13T08:33:04.704Z,360
2022-10-13T08:34:04.927Z,350
2022-10-13T08:35:04.430Z,338
2022-10-13T08:36:04.918Z,356
2022-10-13T08:37:04.177Z,346
2022-10-13T08:38:04.412Z,344
2022-10-13T08:39:04.902Z,341
2022-10-13T08:40:04.424Z,346
2022-10-13T08:41:04.848Z,341
2022-10-13T08:42:04.269Z,338
2022-10-13T08:43:04.891Z,336
2022-10-13T08:44:41.293Z,345
2022-10-13T08:45:28.836Z,349
2022-10-13T08:46:04.606Z,342
2022-10-13T08:47:05.011Z,347
2022-10-13T08:48:04.397Z,344
2022-10-13T08:49:04.836Z,341
2022-10-13T08:50:05.204Z,346
2022-10-13T08:51:04.635Z,349
2022-10-13T08:52:05.073Z,352
2022-10-13T08:53:04.408Z,354
2022-10-13T08:54:04.663Z,357
2022-10-13T08:55:05.098Z,346
2022-10-13T08:56:04.477Z,340
2022-10-13T08:57:04.762Z,347
2022-10-13T08:58:05.142Z,349
2022-10-13T08:59:04.325Z,350
2022-10-13T09:00:05.663Z,348
2022-10-13T09:01:05.291Z,341
2022-10-13T09:02:04.666Z,344
2022-10-13T09:03:04.176Z,351
2022-10-13T09:04:04.747Z,346
2022-10-13T09:05:05.282Z,344
2022-10-13T09:06:04.725Z,343
2022-10-13T09:07:05.375Z,344
2022-10-13T09:08:04.681Z,347
2022-10-13T09:09:05.203Z,346
2022-10-13T09:10:04.250Z,341
2022-10-13T09:13:05.197Z,339
2022-10-13T09:14:04.433Z,343
2022-10-13T09:15:05.210Z,352
2022-10-13T09:16:04.755Z,345
2022-10-13T09:17:05.424Z,357
2022-10-13T09:18:04.882Z,341
2022-10-13T09:19:05.163Z,332
2022-10-13T09:21:04.761Z,331
2022-10-13T09:22:04.166Z,341
2022-10-13T09:23:04.599Z,345
2022-10-13T09:25:04.197Z,345
2022-10-13T09:26:04.784Z,336
2022-10-13T09:27:04.215Z,330
2022-10-13T09:28:04.563Z,337
2022-10-13T09:29:05.064Z,339
2022-10-13T09:30:04.714Z,355
2022-10-13T09:31:04.259Z,356
2022-10-13T09:32:04.366Z,352
2022-10-13T09:33:04.933Z,350
2022-10-13T09:34:04.221Z,356
2022-10-13T09:35:04.808Z,349
2022-10-13T09:36:05.270Z,360
2022-10-13T09:37:04.299Z,329
2022-10-13T09:38:04.914Z,332
2022-10-13T09:39:04.303Z,339
2022-10-13T09:40:04.686Z,328
2022-10-13T09:41:05.209Z,334
2022-10-13T09:42:04.634Z,345
2022-10-13T09:44:04.490Z,339
2022-10-13T09:45:04.930Z,345
2022-10-13T09:46:04.429Z,338
2022-10-13T09:47:04.822Z,329
2022-10-13T09:48:05.255Z,328
2022-10-13T09:49:04.591Z,327
2022-10-13T09:50:07.290Z,333
2022-10-13T09:51:04.824Z,336
2022-10-13T09:52:05.162Z,346
2022-10-13T09:53:04.580Z,342
2022-10-13T09:54:04.981Z,349
2022-10-13T09:55:04.412Z,351
2022-10-13T09:56:04.807Z,350
2022-10-13T09:57:04.983Z,352
2022-10-13T09:58:04.229Z,339
2022-10-13T09:59:04.535Z,337
2022-10-13T10:00:05.914Z,329
2022-10-13T10:02:04.582Z,335
2022-10-13T10:03:05.192Z,331
2022-10-13T10:04:04.602Z,337
2022-10-13T10:05:05.187Z,344
2022-10-13T10:06:04.706Z,355
2022-10-13T10:07:05.302Z,352
2022-10-13T10:08:04.389Z,338
2022-10-13T10:09:05.320Z,333
2022-10-13T10:10:04.997Z,340
2022-10-13T10:11:04.789Z,321
2022-10-13T10:12:05.280Z,313
2022-10-13T10:13:04.771Z,321
2022-10-13T10:14:04.562Z,340
2022-10-13T10:15:05.536Z,342
2022-10-13T10:16:05.226Z,343
2022-10-13T10:17:04.859Z,331
2022-10-13T10:18:04.536Z,321
2022-10-13T10:19:04.599Z,335
2022-10-13T10:20:05.355Z,333
2022-10-13T10:21:04.987Z,326
2022-10-13T10:22:04.310Z,331
2022-10-13T10:23:04.654Z,339
2022-10-13T10:24:05.170Z,346
2022-10-13T10:25:05.117Z,352
2022-10-13T10:26:04.415Z,339
2022-10-13T10:27:05.087Z,356
2022-10-13T10:28:04.470Z,331
2022-10-13T10:29:04.717Z,329
2022-10-13T10:30:05.362Z,316
2022-10-13T10:31:05.126Z,317
2022-10-13T10:32:04.657Z,326
2022-10-13T10:33:05.205Z,335
2022-10-13T10:34:04.331Z,346
2022-10-13T10:35:04.667Z,345
2022-10-13T10:36:04.221Z,344
2022-10-13T10:37:04.696Z,333
2022-10-13T10:38:05.214Z,345
2022-10-13T10:40:05.320Z,333
2022-10-13T10:41:04.949Z,328
2022-10-13T10:42:04.527Z,338
2022-10-13T10:43:05.065Z,323
2022-10-13T10:44:04.285Z,374
2022-10-13T10:45:10.043Z,336
2022-10-13T10:46:04.384Z,344
2022-10-13T10:47:04.947Z,336
2022-10-13T10:48:04.529Z,333
2022-10-13T10:49:04.756Z,346
2022-10-13T10:50:05.145Z,333
2022-10-13T10:51:04.831Z,336
2022-10-13T10:52:04.198Z,339
2022-10-13T10:53:04.671Z,337
2022-10-13T10:54:05.481Z,327
2022-10-13T10:56:04.481Z,333
2022-10-13T10:57:04.895Z,340
2022-10-13T10:58:04.441Z,347
2022-10-13T10:59:04.826Z,346
2022-10-13T11:00:05.035Z,342
2022-10-13T11:01:04.903Z,344
2022-10-13T11:02:04.377Z,343
2022-10-13T11:04:04.526Z,344
2022-10-13T11:05:06.487Z,342
2022-10-13T11:06:05.460Z,341
2022-10-13T11:07:04.976Z,328
2022-10-13T11:08:04.388Z,334
2022-10-13T11:09:05.149Z,346
2022-10-13T11:10:05.006Z,352
2022-10-13T11:11:04.617Z,354
2022-10-13T11:12:05.361Z,341
2022-10-13T11:13:05.133Z,339
2022-10-13T11:15:05.614Z,343
2022-10-13T11:16:04.455Z,334
2022-10-13T11:17:05.067Z,338
2022-10-13T11:18:04.761Z,328
2022-10-13T11:19:05.330Z,349
2022-10-13T11:20:05.104Z,339
2022-10-13T11:21:04.735Z,346
2022-10-13T11:22:05.232Z,347
2022-10-13T11:23:04.837Z,349
2022-10-13T11:25:05.282Z,348
2022-10-13T11:26:04.836Z,343
2022-10-13T11:27:05.309Z,349
2022-10-13T11:28:04.548Z,345
2022-10-13T11:29:04.942Z,343
2022-10-13T11:30:04.696Z,353
2022-10-13T11:31:04.523Z,350
2022-10-13T11:32:05.005Z,355
2022-10-13T11:34:05.031Z,352
2022-10-13T11:35:04.688Z,344
2022-10-13T11:36:05.171Z,345
2022-10-13T11:37:04.565Z,353
2022-10-13T11:38:07.781Z,350
2022-10-13T11:39:04.723Z,341
2022-10-13T11:40:05.375Z,340
2022-10-13T11:41:05.089Z,345
2022-10-13T11:42:05.861Z,346
2022-10-13T11:43:05.326Z,345
2022-10-13T11:45:05.684Z,346
2022-10-13T11:46:04.287Z,347
2022-10-13T11:47:04.709Z,342
2022-10-13T11:48:04.503Z,349
2022-10-13T11:49:05.232Z,346
2022-10-13T11:50:04.881Z,339
2022-10-13T11:51:05.135Z,337
2022-10-13T11:52:04.603Z,331
2022-10-13T11:53:05.375Z,334
2022-10-13T11:54:04.575Z,328
2022-10-13T11:55:05.134Z,333
2022-10-13T11:56:04.464Z,340
2022-10-13T11:57:05.033Z,341
2022-10-13T11:58:04.263Z,348
2022-10-13T11:59:04.773Z,349
2022-10-13T12:01:04.716Z,345
2022-10-13T12:02:05.239Z,342
2022-10-13T12:03:04.552Z,335
2022-10-13T12:04:04.161Z,338
2022-10-13T12:06:05.086Z,330
2022-10-13T12:07:04.440Z,337
2022-10-13T12:08:04.758Z,346
2022-10-13T12:09:05.251Z,340
2022-10-13T12:10:04.918Z,335
2022-10-13T12:11:04.354Z,329
2022-10-13T12:12:04.834Z,326
2022-10-13T12:13:05.277Z,337
2022-10-13T12:16:04.889Z,334
2022-10-13T12:17:04.296Z,342
2022-10-13T12:18:04.773Z,338
2022-10-13T12:19:04.232Z,346
2022-10-13T12:20:04.781Z,344
2022-10-13T12:21:05.281Z,342
2022-10-13T12:22:04.921Z,335
2022-10-13T12:23:04.242Z,339
2022-10-13T12:24:04.938Z,342
2022-10-13T12:25:04.522Z,349
2022-10-13T12:26:05.027Z,362
2022-10-13T12:27:04.392Z,324
2022-10-13T12:28:04.624Z,340
2022-10-13T12:29:05.041Z,346
2022-10-13T12:30:04.662Z,338
2022-10-13T12:32:04.706Z,346
2022-10-13T12:33:05.270Z,335
2022-10-13T12:34:04.648Z,343
2022-10-13T12:35:05.135Z,344
2022-10-13T12:36:04.493Z,341
2022-10-13T12:37:04.913Z,339
2022-10-13T12:38:05.262Z,338
2022-10-13T12:39:04.550Z,340
2022-10-13T12:41:04.848Z,345
2022-10-13T12:42:05.358Z,333
2022-10-13T12:43:04.688Z,323
2022-10-13T12:44:06.784Z,332
2022-10-13T12:45:04.717Z,333
2022-10-13T12:46:05.124Z,340
2022-10-13T12:47:04.461Z,349
2022-10-13T12:48:04.889Z,348
2022-10-13T12:49:05.166Z,342
2022-10-13T12:50:04.769Z,324
2022-10-13T12:51:04.265Z,322
2022-10-13T12:52:04.526Z,345
2022-10-13T12:53:05.000Z,339
2022-10-13T12:54:04.361Z,336
2022-10-13T12:55:04.761Z,337
2022-10-13T12:56:05.170Z,328
2022-10-13T12:57:04.346Z,335
2022-10-13T12:58:04.610Z,344
2022-10-13T13:00:05.150Z,342
2022-10-13T13:01:04.812Z,338
2022-10-13T13:03:05.035Z,336
2022-10-13T13:04:04.423Z,335
2022-10-13T13:05:05.032Z,344
2022-10-13T13:06:04.371Z,351
2022-10-13T13:07:04.688Z,347
2022-10-13T13:08:05.276Z,349
2022-10-13T13:09:04.660Z,344
2022-10-13T13:10:05.370Z,348
2022-10-13T13:11:04.878Z,340
2022-10-13T13:12:09.191Z,337
2022-10-13T13:13:04.803Z,338
2022-10-13T13:14:09.332Z,343
2022-10-13T13:15:04.953Z,353
2022-10-13T13:16:09.536Z,344
2022-10-13T13:17:04.986Z,349
2022-10-13T13:18:09.571Z,356
2022-10-13T13:19:05.049Z,326
2022-10-13T13:20:12.356Z,338
2022-10-13T13:22:13.249Z,334
2022-10-13T13:23:04.600Z,350
2022-10-13T13:24:16.191Z,348
2022-10-13T13:25:04.359Z,343
2022-10-13T13:26:12.799Z,337
2022-10-13T13:27:05.166Z,336
2022-10-13T13:28:04.608Z,335
2022-10-13T13:29:05.213Z,332
2022-10-13T13:30:18.923Z,347
2022-10-13T13:31:05.249Z,341
2022-10-13T13:32:04.789Z,329
2022-10-13T13:33:05.359Z,325
2022-10-13T13:34:05.097Z,326
2022-10-13T13:35:04.541Z,322
2022-10-13T13:36:19.329Z,327
2022-10-13T13:37:04.643Z,348
2022-10-13T13:38:05.034Z,345
2022-10-13T13:39:04.515Z,348
2022-10-13T13:40:04.878Z,341
2022-10-13T13:41:05.397Z,343
2022-10-13T13:42:04.980Z,339
2022-10-13T13:43:04.098Z,341
2022-10-13T13:44:04.317Z,345
2022-10-13T13:45:05.059Z,354
2022-10-13T13:46:04.601Z,336
2022-10-13T13:47:05.182Z,326
2022-10-13T13:48:04.716Z,317
2022-10-13T13:49:04.259Z,321
2022-10-13T13:50:04.802Z,327
2022-10-13T13:51:05.314Z,329
2022-10-13T13:52:04.749Z,334
2022-10-13T13:53:05.088Z,333
2022-10-13T13:54:04.317Z,338
2022-10-13T13:55:04.678Z,341
2022-10-13T13:56:27.218Z,347
2022-10-13T13:57:04.706Z,340
2022-10-13T13:58:05.080Z,335
2022-10-13T13:59:04.479Z,342
2022-10-13T14:00:05.348Z,338
2022-10-13T14:01:04.702Z,334
2022-10-13T14:02:05.357Z,333
2022-10-13T14:03:05.245Z,330
2022-10-13T14:04:04.694Z,332
2022-10-13T14:05:05.315Z,327
2022-10-13T14:06:04.674Z,334
2022-10-13T14:07:05.310Z,338
2022-10-13T14:08:04.485Z,344
2022-10-13T14:09:05.166Z,336
2022-10-13T14:10:04.835Z,346
2022-10-13T14:11:04.221Z,342
2022-10-13T14:12:04.424Z,334
2022-10-13T14:13:04.907Z,325
2022-10-13T14:14:04.493Z,328
2022-10-13T14:15:05.368Z,331
2022-10-13T14:16:05.172Z,325
2022-10-13T14:17:04.875Z,339
2022-10-13T14:18:04.284Z,338
2022-10-13T14:19:04.857Z,339
2022-10-13T14:21:04.901Z,352
2022-10-13T14:22:09.160Z,354
2022-10-13T14:23:04.985Z,345
2022-10-13T14:24:04.532Z,341
2022-10-13T14:25:05.200Z,339
2022-10-13T14:26:04.981Z,344
2022-10-13T14:27:05.333Z,334
2022-10-13T14:28:04.933Z,372
2022-10-13T14:29:04.185Z,348
2022-10-13T14:30:05.699Z,338
2022-10-13T14:31:04.779Z,321
2022-10-13T14:32:05.483Z,324
2022-10-13T14:33:05.137Z,326